createdAt,value
2019-04-30T00:00:38.334Z,71.35
2019-04-30T00:03:15.379Z,65.12
2019-04-30T00:05:45.102Z,63.17
2019-04-30T00:08:16.540Z,63.63
2019-04-30T00:10:48.117Z,67.45
2019-04-30T00:13:20.941Z,71.55
2019-04-30T00:16:00.101Z,66.02
2019-04-30T00:18:30.787Z,66.33
2019-04-30T00:21:02.051Z,75.12
2019-04-30T00:23:35.835Z,66.30
2019-04-30T00:26:10.231Z,71.92
2019-04-30T00:28:44.371Z,73.12
2019-04-30T00:31:17.288Z,73.45
2019-04-30T00:33:47.050Z,70.57
2019-04-30T00:36:18.528Z,76.87
2019-04-30T00:38:50.368Z,70.57
2019-04-30T00:41:22.029Z,71.40
2019-04-30T00:43:55.060Z,76.42
2019-04-30T00:46:29.298Z,68.28
2019-04-30T00:49:09.283Z,72.05
2019-04-30T00:51:35.428Z,70.87
2019-04-30T00:54:07.292Z,75.30
2019-04-30T00:56:38.881Z,71.90
2019-04-30T00:59:15.416Z,67.75
2019-04-30T01:01:51.329Z,77.12
2019-04-30T01:04:28.234Z,80.77
2019-04-30T01:07:00.397Z,76.00
2019-04-30T01:09:51.574Z,70.87
2019-04-30T01:12:27.701Z,75.12
2019-04-30T01:14:56.304Z,78.12
2019-04-30T01:17:27.698Z,73.83
2019-04-30T01:19:59.487Z,79.40
2019-04-30T01:22:32.911Z,78.17
2019-04-30T01:25:08.968Z,72.53
2019-04-30T01:27:45.760Z,71.95
2019-04-30T01:30:18.702Z,77.37
2019-04-30T01:32:52.139Z,77.15
2019-04-30T01:35:23.894Z,72.60
2019-04-30T01:37:54.388Z,73.65
2019-04-30T01:40:26.066Z,71.07
2019-04-30T01:42:59.339Z,75.55
2019-04-30T01:45:31.700Z,72.87
2019-04-30T01:48:08.857Z,67.32
2019-04-30T01:50:38.729Z,68.85
2019-04-30T01:53:13.096Z,72.67
2019-04-30T01:55:45.877Z,75.67
2019-04-30T01:58:22.563Z,68.42
2019-04-30T02:00:59.366Z,76.70
2019-04-30T02:03:31.135Z,87.47
2019-04-30T02:06:04.002Z,75.50
2019-04-30T02:08:39.294Z,71.35
2019-04-30T02:11:10.793Z,77.15
2019-04-30T02:13:42.207Z,75.28
2019-04-30T02:16:13.605Z,69.95
2019-04-30T02:18:45.188Z,68.35
2019-04-30T02:21:19.071Z,79.47
2019-04-30T02:23:50.139Z,116.40
2019-04-30T02:26:23.292Z,127.62
2019-04-30T02:28:54.681Z,116.42
2019-04-30T02:31:26.233Z,129.50
2019-04-30T02:34:00.485Z,120.35
2019-04-30T02:36:49.946Z,121.13
2019-04-30T02:39:23.608Z,127.97
2019-04-30T02:41:55.689Z,127.78
2019-04-30T02:44:29.333Z,130.43
2019-04-30T02:47:02.368Z,134.43
2019-04-30T02:49:34.975Z,135.50
2019-04-30T02:52:09.278Z,124.47
2019-04-30T02:54:43.442Z,118.25
2019-04-30T02:57:15.184Z,120.25
2019-04-30T03:00:06.404Z,119.28
2019-04-30T03:02:39.450Z,104.25
2019-04-30T03:05:13.680Z,101.47
2019-04-30T03:07:45.583Z,88.97
2019-04-30T03:10:19.711Z,84.32
2019-04-30T03:12:50.322Z,87.25
2019-04-30T03:15:22.857Z,99.30
2019-04-30T03:18:00.569Z,92.55
2019-04-30T03:20:42.271Z,97.10
2019-04-30T03:23:13.674Z,109.85
2019-04-30T03:25:45.129Z,114.12
2019-04-30T03:28:16.652Z,118.47
2019-04-30T03:30:56.305Z,127.50
2019-04-30T03:33:23.664Z,109.50
2019-04-30T03:36:01.834Z,133.75
2019-04-30T03:38:30.219Z,153.30
2019-04-30T03:41:01.659Z,166.07
2019-04-30T03:43:33.256Z,144.97
2019-04-30T03:46:04.801Z,129.47
2019-04-30T03:48:36.208Z,130.45
2019-04-30T03:51:10.663Z,121.50
2019-04-30T03:53:42.701Z,130.67
2019-04-30T03:56:14.478Z,119.55
2019-04-30T03:58:45.927Z,117.90
2019-04-30T04:01:34.121Z,127.10
2019-04-30T04:04:13.526Z,120.95
2019-04-30T04:06:52.662Z,111.50
2019-04-30T04:09:31.607Z,132.60
2019-04-30T04:12:21.587Z,124.80
2019-04-30T04:14:54.283Z,126.65
2019-04-30T04:17:26.024Z,127.58
2019-04-30T04:19:59.785Z,124.92
2019-04-30T04:22:31.029Z,125.67
2019-04-30T04:25:02.610Z,125.80
2019-04-30T04:27:34.196Z,126.18
2019-04-30T04:30:10.339Z,119.30
2019-04-30T04:32:40.978Z,120.40
2019-04-30T04:35:13.042Z,120.13
2019-04-30T04:37:44.737Z,103.20
2019-04-30T04:40:16.423Z,105.37
2019-04-30T04:42:49.270Z,91.15
2019-04-30T04:45:20.966Z,84.30
2019-04-30T04:47:52.563Z,79.15
2019-04-30T04:50:25.018Z,69.17
2019-04-30T04:52:56.676Z,63.00
2019-04-30T04:55:29.875Z,66.42
2019-04-30T04:58:01.695Z,63.48
2019-04-30T05:00:34.176Z,59.67
2019-04-30T05:03:10.247Z,58.33
2019-04-30T05:05:41.731Z,58.25
2019-04-30T05:08:14.152Z,56.10
2019-04-30T05:10:45.744Z,57.30
2019-04-30T05:13:19.082Z,55.48
2019-04-30T05:15:51.642Z,55.52
2019-04-30T05:18:23.155Z,56.50
2019-04-30T05:20:56.813Z,63.60
2019-04-30T05:23:29.847Z,73.78
2019-04-30T05:26:02.489Z,58.55
2019-04-30T05:28:39.367Z,58.30
2019-04-30T05:31:18.431Z,59.38
2019-04-30T05:33:50.653Z,50.55
2019-04-30T05:36:22.453Z,49.10
2019-04-30T05:38:54.049Z,41.73
2019-04-30T05:41:29.799Z,41.63
2019-04-30T05:44:01.626Z,37.78
2019-04-30T05:46:33.178Z,41.95
2019-04-30T05:49:04.828Z,41.83
2019-04-30T05:51:38.802Z,39.78
2019-04-30T05:54:10.467Z,48.33
2019-04-30T05:56:42.790Z,37.58
2019-04-30T05:59:14.348Z,36.30
2019-04-30T06:01:48.723Z,37.42
2019-04-30T06:04:19.378Z,34.45
2019-04-30T06:06:50.956Z,36.33
2019-04-30T06:09:33.682Z,42.35
2019-04-30T06:12:26.307Z,37.03
2019-04-30T06:15:02.343Z,38.35
2019-04-30T06:17:34.501Z,41.33
2019-04-30T06:20:18.104Z,39.80
2019-04-30T06:22:40.750Z,36.48
2019-04-30T06:25:12.284Z,40.73
2019-04-30T06:27:45.837Z,37.48
2019-04-30T06:30:19.718Z,37.53
2019-04-30T06:32:55.185Z,40.08
2019-04-30T06:35:26.840Z,43.40
2019-04-30T06:37:58.939Z,45.25
2019-04-30T06:40:30.649Z,59.67
2019-04-30T06:43:02.387Z,41.65
2019-04-30T06:45:35.536Z,41.68
2019-04-30T06:48:08.753Z,46.98
2019-04-30T06:50:40.290Z,47.27
2019-04-30T06:53:11.702Z,41.50
2019-04-30T06:55:44.192Z,39.18
2019-04-30T06:58:15.675Z,41.25
2019-04-30T07:00:47.160Z,39.35
2019-04-30T07:03:19.155Z,45.73
2019-04-30T07:05:50.668Z,50.58
2019-04-30T07:08:46.922Z,48.68
2019-04-30T07:11:21.671Z,45.78
2019-04-30T07:13:53.314Z,46.70
2019-04-30T07:16:24.803Z,41.37
2019-04-30T07:18:56.178Z,44.93
2019-04-30T07:21:31.685Z,44.35
2019-04-30T07:24:05.634Z,43.42
2019-04-30T07:26:38.941Z,42.20
2019-04-30T07:29:10.308Z,40.65
2019-04-30T07:31:42.738Z,43.52
2019-04-30T07:34:14.111Z,82.75
2019-04-30T07:36:51.076Z,55.95
2019-04-30T07:39:19.313Z,39.42
2019-04-30T07:41:51.783Z,34.80
2019-04-30T07:44:33.726Z,33.60
2019-04-30T07:46:56.343Z,37.33
2019-04-30T07:49:46.515Z,32.60
2019-04-30T07:52:02.194Z,37.58
2019-04-30T07:54:34.207Z,35.13
2019-04-30T07:57:05.557Z,33.02
2019-04-30T07:59:37.135Z,35.17
2019-04-30T08:02:13.840Z,34.13
2019-04-30T08:04:51.226Z,30.08
2019-04-30T08:07:22.592Z,31.10
2019-04-30T08:09:54.042Z,37.33
2019-04-30T08:12:31.763Z,33.85
2019-04-30T08:14:59.713Z,33.42
2019-04-30T08:17:31.131Z,32.70
2019-04-30T08:20:02.593Z,33.75
2019-04-30T08:22:34.417Z,32.80
2019-04-30T08:25:06.707Z,31.05
2019-04-30T08:27:39.289Z,28.23
2019-04-30T08:30:23.032Z,32.80
2019-04-30T08:32:44.582Z,35.28
2019-04-30T08:35:16.012Z,37.73
2019-04-30T08:37:49.525Z,39.88
2019-04-30T08:40:21.144Z,45.55
2019-04-30T08:42:56.185Z,46.77
2019-04-30T08:45:31.460Z,44.53
2019-04-30T08:48:02.376Z,41.73
2019-04-30T08:50:34.663Z,48.87
2019-04-30T08:53:06.302Z,46.95
2019-04-30T08:55:39.143Z,50.23
2019-04-30T08:58:14.919Z,47.27
2019-04-30T09:00:44.113Z,41.18
2019-04-30T09:03:15.795Z,41.60
2019-04-30T09:05:49.926Z,40.20
2019-04-30T09:08:21.542Z,33.35
2019-04-30T09:10:52.922Z,29.32
2019-04-30T09:13:24.547Z,34.83
2019-04-30T09:15:56.295Z,31.87
2019-04-30T09:18:29.162Z,26.50
2019-04-30T09:21:05.962Z,28.75
2019-04-30T09:23:43.950Z,29.30
2019-04-30T09:26:08.679Z,30.62
2019-04-30T09:31:06.419Z,20.12
2019-04-30T09:33:39.366Z,20.08
2019-04-30T09:36:10.909Z,20.52
2019-04-30T09:38:42.374Z,27.13
2019-04-30T09:41:14.057Z,20.45
2019-04-30T09:43:45.417Z,20.10
2019-04-30T09:46:24.641Z,21.07
2019-04-30T09:48:50.858Z,18.98
2019-04-30T09:51:24.725Z,19.60
2019-04-30T09:53:59.963Z,24.92
2019-04-30T09:56:29.396Z,21.10
2019-04-30T09:59:01.024Z,21.68
2019-04-30T10:01:33.249Z,19.85
2019-04-30T10:04:05.933Z,24.60
2019-04-30T10:06:40.186Z,18.35
2019-04-30T10:09:12.579Z,18.90
2019-04-30T10:11:45.624Z,17.67
2019-04-30T10:14:17.142Z,68.07
2019-04-30T10:16:57.179Z,23.92
2019-04-30T10:19:29.371Z,30.17
2019-04-30T10:22:00.801Z,24.05
2019-04-30T10:24:34.202Z,24.25
2019-04-30T10:27:10.428Z,23.98
2019-04-30T10:29:41.200Z,26.95
2019-04-30T10:32:12.993Z,28.85
2019-04-30T10:34:45.907Z,80.72
2019-04-30T10:37:18.901Z,34.38
2019-04-30T10:39:50.427Z,32.33
2019-04-30T10:42:22.039Z,55.05
2019-04-30T10:44:53.414Z,334.75
2019-04-30T10:47:25.862Z,64.85
2019-04-30T10:49:58.544Z,103.65
2019-04-30T10:52:30.016Z,108.17
2019-04-30T10:55:04.506Z,109.52
2019-04-30T10:57:35.586Z,105.70
2019-04-30T11:00:11.337Z,105.00
2019-04-30T11:02:42.704Z,156.05
2019-04-30T11:05:15.579Z,124.92
2019-04-30T11:07:46.989Z,121.67
2019-04-30T11:10:18.924Z,106.85
2019-04-30T11:12:50.395Z,110.88
2019-04-30T11:15:22.815Z,100.22
2019-04-30T11:17:54.404Z,112.72
2019-04-30T11:20:27.124Z,97.75
2019-04-30T11:22:58.800Z,102.40
2019-04-30T11:25:31.345Z,104.47
2019-04-30T11:28:03.844Z,103.95
2019-04-30T11:30:36.591Z,102.53
2019-04-30T11:33:09.974Z,107.43
2019-04-30T11:35:43.573Z,110.88
2019-04-30T11:38:14.996Z,102.72
2019-04-30T11:40:48.581Z,95.53
2019-04-30T11:43:20.290Z,100.15
2019-04-30T11:45:54.516Z,90.20
2019-04-30T11:48:26.003Z,98.07
2019-04-30T11:50:59.436Z,175.38
2019-04-30T11:53:30.989Z,87.47
2019-04-30T11:56:02.656Z,83.12
2019-04-30T11:58:33.889Z,90.77
2019-04-30T12:01:06.881Z,79.55
2019-04-30T12:03:39.417Z,85.72
2019-04-30T12:06:12.028Z,83.07
2019-04-30T12:09:00.353Z,80.17
2019-04-30T12:11:40.839Z,87.37
2019-04-30T12:14:12.583Z,79.70
2019-04-30T12:16:45.280Z,88.00
2019-04-30T12:19:16.640Z,83.47
2019-04-30T12:21:48.006Z,88.00
2019-04-30T12:24:20.554Z,83.03
2019-04-30T12:26:51.991Z,84.83
2019-04-30T12:29:23.557Z,76.62
2019-04-30T12:31:55.009Z,82.53
2019-04-30T12:34:26.503Z,87.37
2019-04-30T12:36:59.647Z,80.95
2019-04-30T12:39:31.308Z,78.25
2019-04-30T12:42:02.827Z,75.03
2019-04-30T12:44:35.201Z,72.15
2019-04-30T12:47:06.658Z,69.40
2019-04-30T12:49:45.710Z,67.30
2019-04-30T12:52:35.419Z,70.45
2019-04-30T12:57:58.287Z,65.25
2019-04-30T13:00:19.971Z,66.85
2019-04-30T13:02:51.727Z,58.23
2019-04-30T13:05:23.434Z,66.95
2019-04-30T13:07:55.526Z,65.78
2019-04-30T13:10:27.989Z,61.00
2019-04-30T13:12:59.949Z,59.80
2019-04-30T13:15:33.858Z,75.80
2019-04-30T13:18:05.272Z,57.67
2019-04-30T13:20:39.038Z,62.55
2019-04-30T13:23:10.033Z,57.80
2019-04-30T13:25:51.072Z,56.10
2019-04-30T13:28:17.500Z,56.92
2019-04-30T13:30:49.442Z,60.50
2019-04-30T13:33:25.671Z,53.80
2019-04-30T13:35:58.829Z,57.85
2019-04-30T13:38:31.969Z,50.15
2019-04-30T13:41:05.054Z,50.33
2019-04-30T13:43:58.625Z,58.65
2019-04-30T13:46:29.614Z,51.60
2019-04-30T13:49:01.173Z,46.10
2019-04-30T13:51:32.616Z,52.25
2019-04-30T13:54:05.700Z,51.30
2019-04-30T13:56:39.692Z,49.50
2019-04-30T13:59:12.442Z,52.23
2019-04-30T14:01:43.987Z,49.58
2019-04-30T14:04:17.156Z,55.88
2019-04-30T14:06:50.410Z,52.30
2019-04-30T14:09:26.591Z,52.17
2019-04-30T14:11:58.148Z,48.17
2019-04-30T14:14:29.698Z,50.75
2019-04-30T14:17:01.365Z,50.43
2019-04-30T14:19:32.976Z,43.90
2019-04-30T14:22:04.448Z,47.20
2019-04-30T14:24:35.937Z,46.45
2019-04-30T14:27:20.409Z,45.85
2019-04-30T14:29:53.430Z,45.90
2019-04-30T14:32:24.956Z,48.55
2019-04-30T14:34:58.842Z,44.00
2019-04-30T14:37:31.821Z,47.83
2019-04-30T14:40:04.957Z,45.00
2019-04-30T14:42:38.798Z,42.33
2019-04-30T14:45:12.800Z,43.20
2019-04-30T14:47:49.958Z,43.23
2019-04-30T14:50:22.092Z,41.80
2019-04-30T14:52:55.118Z,44.80
2019-04-30T14:55:45.866Z,47.35
2019-04-30T14:58:35.411Z,42.50
2019-04-30T15:01:19.373Z,43.63
2019-04-30T15:03:51.032Z,46.18
2019-04-30T15:06:29.522Z,43.83
2019-04-30T15:09:01.099Z,52.50
2019-04-30T15:11:34.373Z,55.28
2019-04-30T15:14:05.987Z,50.95
2019-04-30T15:16:37.505Z,48.55
2019-04-30T15:19:09.953Z,49.20
2019-04-30T15:21:41.359Z,50.70
2019-04-30T15:24:17.062Z,50.40
2019-04-30T15:26:57.711Z,50.10
2019-04-30T15:29:24.775Z,49.18
2019-04-30T15:31:56.399Z,49.98
2019-04-30T15:34:29.432Z,51.60
2019-04-30T15:37:01.227Z,52.15
2019-04-30T15:39:35.352Z,49.40
2019-04-30T15:42:07.480Z,51.53
2019-04-30T15:44:42.649Z,48.42
2019-04-30T15:47:12.201Z,56.48
2019-04-30T15:49:43.572Z,53.48
2019-04-30T15:52:15.066Z,52.55
2019-04-30T15:54:46.434Z,57.05
2019-04-30T15:57:19.081Z,58.25
2019-04-30T15:59:50.479Z,59.27
2019-04-30T16:02:23.567Z,55.65
2019-04-30T16:05:11.839Z,65.08
2019-04-30T16:07:50.495Z,64.75
2019-04-30T16:10:35.606Z,61.00
2019-04-30T16:13:15.616Z,63.98
2019-04-30T16:15:49.090Z,64.30
2019-04-30T16:18:20.280Z,100.22
2019-04-30T16:20:51.672Z,66.47
2019-04-30T16:23:23.162Z,65.25
2019-04-30T16:25:54.587Z,67.22
2019-04-30T16:28:26.477Z,64.72
2019-04-30T16:30:58.034Z,60.67
2019-04-30T16:33:29.515Z,63.20
2019-04-30T16:36:01.004Z,59.55
2019-04-30T16:38:33.415Z,64.25
2019-04-30T16:41:04.807Z,61.35
2019-04-30T16:43:36.277Z,59.73
2019-04-30T16:46:07.766Z,63.02
2019-04-30T16:48:39.347Z,60.38
2019-04-30T16:51:10.802Z,65.92
2019-04-30T16:53:42.176Z,65.32
2019-04-30T16:56:13.582Z,64.92
2019-04-30T16:59:01.882Z,63.83
2019-04-30T17:01:34.863Z,58.65
2019-04-30T17:04:10.974Z,61.88
2019-04-30T17:06:44.072Z,61.70
2019-04-30T17:09:33.295Z,60.88
2019-04-30T17:12:08.483Z,58.25
2019-04-30T17:14:41.259Z,59.67
2019-04-30T17:17:12.715Z,64.50
2019-04-30T17:19:44.897Z,65.67
2019-04-30T17:22:16.261Z,65.17
2019-04-30T17:24:49.430Z,60.90
2019-04-30T17:27:22.198Z,67.22
2019-04-30T17:30:02.872Z,67.55
2019-04-30T17:32:34.368Z,61.75
2019-04-30T17:35:09.022Z,68.83
2019-04-30T17:37:42.350Z,63.38
2019-04-30T17:40:14.910Z,69.70
2019-04-30T17:42:46.783Z,70.57
2019-04-30T17:45:19.480Z,72.30
2019-04-30T17:47:50.980Z,73.90
2019-04-30T17:50:24.093Z,74.15
2019-04-30T17:52:55.558Z,74.55
2019-04-30T17:55:29.157Z,70.17
2019-04-30T17:58:00.989Z,69.90
2019-04-30T18:00:35.233Z,72.37
2019-04-30T18:03:08.857Z,75.00
2019-04-30T18:05:40.787Z,73.00
2019-04-30T18:08:12.311Z,71.97
2019-04-30T18:10:44.392Z,81.05
2019-04-30T18:13:15.810Z,78.15
2019-04-30T18:15:48.424Z,76.45
2019-04-30T18:18:23.672Z,72.55
2019-04-30T18:21:11.711Z,71.25
2019-04-30T18:23:44.879Z,74.53
2019-04-30T18:26:17.716Z,83.62
2019-04-30T18:28:49.082Z,71.45
2019-04-30T18:31:20.527Z,81.10
2019-04-30T18:33:52.076Z,80.60
2019-04-30T18:36:24.510Z,80.38
2019-04-30T18:38:55.899Z,124.85
2019-04-30T18:41:29.125Z,64.12
2019-04-30T18:44:00.613Z,66.33
2019-04-30T18:46:32.285Z,67.80
2019-04-30T18:49:04.759Z,63.95
2019-04-30T18:51:39.353Z,66.50
2019-04-30T18:54:09.639Z,69.27
2019-04-30T18:56:41.046Z,67.70
2019-04-30T18:59:12.515Z,68.70
2019-04-30T19:01:44.603Z,67.50
2019-04-30T19:04:16.031Z,68.95
2019-04-30T19:06:50.068Z,74.05
2019-04-30T19:09:35.067Z,61.42
2019-04-30T19:12:19.296Z,81.53
2019-04-30T19:15:07.188Z,68.67
2019-04-30T19:17:41.288Z,63.70
2019-04-30T19:20:20.201Z,70.25
2019-04-30T19:22:51.648Z,66.70
2019-04-30T19:25:23.037Z,62.62
2019-04-30T19:27:54.387Z,64.75
2019-04-30T19:30:29.171Z,67.35
2019-04-30T19:33:00.155Z,62.53
2019-04-30T19:35:31.673Z,59.13
2019-04-30T19:38:03.149Z,63.90
2019-04-30T19:40:34.707Z,70.83
2019-04-30T19:43:06.124Z,61.45
2019-04-30T19:45:38.060Z,63.52
2019-04-30T19:48:10.621Z,62.13
2019-04-30T19:50:42.128Z,67.60
2019-04-30T19:53:13.657Z,60.92
2019-04-30T19:55:45.107Z,60.43
2019-04-30T19:58:27.735Z,62.13
2019-04-30T20:00:50.005Z,63.02
2019-04-30T20:03:24.074Z,63.50
2019-04-30T20:05:55.607Z,62.98
2019-04-30T20:08:28.698Z,64.32
2019-04-30T20:11:00.493Z,66.47
2019-04-30T20:13:37.033Z,59.38
2019-04-30T20:16:05.274Z,60.50
2019-04-30T20:18:36.631Z,69.62
2019-04-30T20:21:09.742Z,78.95
2019-04-30T20:23:42.279Z,78.17
2019-04-30T20:26:14.769Z,73.15
2019-04-30T20:28:46.050Z,67.95
2019-04-30T20:31:19.057Z,64.42
2019-04-30T20:33:53.603Z,69.35
2019-04-30T20:36:23.979Z,72.30
2019-04-30T20:39:02.822Z,67.75
2019-04-30T20:41:35.940Z,65.15
2019-04-30T20:44:08.724Z,69.37
2019-04-30T20:46:40.502Z,68.70
2019-04-30T20:49:15.711Z,67.32
2019-04-30T20:51:55.240Z,64.42
2019-04-30T20:54:20.362Z,60.23
2019-04-30T20:56:51.849Z,63.63
2019-04-30T20:59:23.263Z,68.35
2019-04-30T21:01:54.550Z,70.83
2019-04-30T21:04:26.145Z,59.33
2019-04-30T21:06:59.369Z,60.98
2019-04-30T21:09:30.522Z,64.40
2019-04-30T21:12:01.956Z,58.33
2019-04-30T21:14:33.495Z,60.67
2019-04-30T21:17:05.096Z,61.15
2019-04-30T21:19:36.583Z,65.05
2019-04-30T21:22:09.521Z,61.68
2019-04-30T21:24:41.024Z,63.95
2019-04-30T21:27:12.535Z,56.48
2019-04-30T21:29:44.936Z,59.53
2019-04-30T21:32:18.974Z,55.45
2019-04-30T21:35:01.845Z,53.20
2019-04-30T21:37:34.777Z,53.75
2019-04-30T21:40:09.619Z,58.87
2019-04-30T21:42:40.560Z,54.42
2019-04-30T21:45:12.455Z,56.33
2019-04-30T21:47:55.759Z,65.32
2019-04-30T21:50:20.596Z,59.10
2019-04-30T21:52:53.576Z,62.75
2019-04-30T21:55:26.523Z,62.65
2019-04-30T21:57:59.446Z,56.48
2019-04-30T22:00:35.448Z,54.73
2019-04-30T22:03:09.728Z,51.18
2019-04-30T22:05:41.544Z,55.25
2019-04-30T22:08:13.040Z,54.63
2019-04-30T22:10:44.525Z,53.60
2019-04-30T22:13:16.006Z,55.85
2019-04-30T22:15:47.477Z,61.90
2019-04-30T22:18:19.163Z,57.67
2019-04-30T22:20:50.757Z,58.60
2019-04-30T22:23:22.164Z,58.23
2019-04-30T22:25:53.701Z,54.50
2019-04-30T22:28:25.175Z,57.90
2019-04-30T22:30:58.556Z,58.17
2019-04-30T22:33:29.809Z,57.70
2019-04-30T22:36:03.004Z,54.58
2019-04-30T22:38:36.062Z,57.30
2019-04-30T22:41:08.928Z,58.10
2019-04-30T22:43:40.352Z,61.88
2019-04-30T22:46:13.423Z,57.00
2019-04-30T22:48:44.885Z,58.60
2019-04-30T22:51:16.263Z,61.02
2019-04-30T22:53:48.897Z,59.60
2019-04-30T22:56:20.179Z,54.42
2019-04-30T22:58:53.246Z,64.50
2019-04-30T23:01:38.336Z,59.70
2019-04-30T23:04:11.341Z,56.80
2019-04-30T23:06:42.956Z,56.13
2019-04-30T23:09:15.934Z,59.58
2019-04-30T23:11:52.456Z,58.15
2019-04-30T23:14:23.919Z,56.73
2019-04-30T23:16:55.362Z,63.85
2019-04-30T23:19:26.780Z,62.58
2019-04-30T23:21:58.031Z,61.23
2019-04-30T23:24:30.596Z,58.48
2019-04-30T23:27:02.035Z,59.20
2019-04-30T23:29:33.377Z,65.42
2019-04-30T23:32:04.849Z,64.15
2019-04-30T23:34:36.232Z,55.70
2019-04-30T23:37:07.664Z,58.85
2019-04-30T23:39:39.031Z,58.95
2019-04-30T23:42:10.309Z,54.93
2019-04-30T23:44:41.751Z,54.05
2019-04-30T23:47:12.955Z,55.15
2019-04-30T23:49:44.282Z,52.30
2019-04-30T23:52:15.658Z,59.45
2019-04-30T23:54:47.037Z,49.53
2019-04-30T23:57:18.333Z,58.23
2019-04-30T23:59:49.642Z,56.13
